sensor_id;sensor_type;location;lat;lon;timestamp;P1;durP1;ratioP1;P2;durP2;ratioP2
74487;SDS011;63019;51.080;13.642;2022-09-03T00:00:55;10.95;;;3.15;;
74487;SDS011;63019;51.080;13.642;2022-09-03T00:02:11;9.07;;;2.85;;
74487;SDS011;63019;51.080;13.642;2022-09-03T00:03:28;8.32;;;2.67;;
74487;SDS011;63019;51.080;13.642;2022-09-03T00:04:41;7.20;;;2.13;;
74487;SDS011;63019;51.080;13.642;2022-09-03T00:07:22;12.65;;;2.80;;
74487;SDS011;63019;51.080;13.642;2022-09-03T00:08:33;14.33;;;2.87;;
74487;SDS011;63019;51.080;13.642;2022-09-03T00:09:48;13.95;;;3.55;;
74487;SDS011;63019;51.080;13.642;2022-09-03T00:11:17;24.77;;;5.85;;
74487;SDS011;63019;51.080;13.642;2022-09-03T00:12:27;26.35;;;7.97;;
74487;SDS011;63019;51.080;13.642;2022-09-03T00:13:37;24.15;;;6.90;;
74487;SDS011;63019;51.080;13.642;2022-09-03T00:14:49;14.88;;;5.57;;
74487;SDS011;63019;51.080;13.642;2022-09-03T00:16:04;12.63;;;3.45;;
74487;SDS011;63019;51.080;13.642;2022-09-03T00:17:16;6.15;;;2.85;;
74487;SDS011;63019;51.080;13.642;2022-09-03T00:18:23;6.32;;;2.67;;
74487;SDS011;63019;51.080;13.642;2022-09-03T00:19:31;6.80;;;2.63;;
74487;SDS011;63019;51.080;13.642;2022-09-03T00:20:43;7.20;;;2.67;;
74487;SDS011;63019;51.080;13.642;2022-09-03T00:21:52;6.50;;;2.17;;
74487;SDS011;63019;51.080;13.642;2022-09-03T00:22:58;9.13;;;2.55;;
74487;SDS011;63019;51.080;13.642;2022-09-03T00:24:05;5.00;;;2.30;;
74487;SDS011;63019;51.080;13.642;2022-09-03T00:25:20;6.28;;;2.60;;
74487;SDS011;63019;51.080;13.642;2022-09-03T00:26:29;4.88;;;2.50;;
74487;SDS011;63019;51.080;13.642;2022-09-03T00:27:36;6.60;;;2.53;;
74487;SDS011;63019;51.080;13.642;2022-09-03T00:29:48;5.20;;;2.25;;
74487;SDS011;63019;51.080;13.642;2022-09-03T00:31:05;3.80;;;1.70;;
74487;SDS011;63019;51.080;13.642;2022-09-03T00:32:19;4.93;;;1.70;;
74487;SDS011;63019;51.080;13.642;2022-09-03T00:33:27;5.75;;;1.40;;
74487;SDS011;63019;51.080;13.642;2022-09-03T00:34:33;5.75;;;1.45;;
74487;SDS011;63019;51.080;13.642;2022-09-03T00:35:46;3.42;;;1.27;;
74487;SDS011;63019;51.080;13.642;2022-09-03T00:36:54;6.00;;;1.23;;
74487;SDS011;63019;51.080;13.642;2022-09-03T00:37:55;2.15;;;1.02;;
74487;SDS011;63019;51.080;13.642;2022-09-03T00:38:57;3.58;;;1.05;;
74487;SDS011;63019;51.080;13.642;2022-09-03T00:39:59;6.35;;;1.50;;
74487;SDS011;63019;51.080;13.642;2022-09-03T00:43:16;2.25;;;1.13;;
74487;SDS011;63019;51.080;13.642;2022-09-03T00:48:27;11.35;;;1.38;;
74487;SDS011;63019;51.080;13.642;2022-09-03T00:49:39;3.20;;;1.20;;
74487;SDS011;63019;51.080;13.642;2022-09-03T00:53:27;3.92;;;1.45;;
74487;SDS011;63019;51.080;13.642;2022-09-03T01:00:19;3.40;;;0.98;;
74487;SDS011;63019;51.080;13.642;2022-09-03T01:08:24;2.08;;;1.20;;
74487;SDS011;63019;51.080;13.642;2022-09-03T01:09:53;3.83;;;1.30;;
74487;SDS011;63019;51.080;13.642;2022-09-03T01:17:07;8.68;;;1.25;;
74487;SDS011;63019;51.080;13.642;2022-09-03T01:18:22;1.77;;;1.10;;
74487;SDS011;63019;51.080;13.642;2022-09-03T01:24:54;5.33;;;1.20;;
74487;SDS011;63019;51.080;13.642;2022-09-03T01:27:00;1.42;;;0.90;;
74487;SDS011;63019;51.080;13.642;2022-09-03T01:29:31;4.18;;;1.38;;
74487;SDS011;63019;51.080;13.642;2022-09-03T01:30:41;4.75;;;1.27;;
74487;SDS011;63019;51.080;13.642;2022-09-03T01:31:54;4.50;;;1.10;;
74487;SDS011;63019;51.080;13.642;2022-09-03T01:35:12;6.47;;;1.33;;
74487;SDS011;63019;51.080;13.642;2022-09-03T01:38:11;5.30;;;1.30;;
74487;SDS011;63019;51.080;13.642;2022-09-03T01:39:27;4.13;;;1.23;;
74487;SDS011;63019;51.080;13.642;2022-09-03T01:46:16;4.82;;;1.48;;
74487;SDS011;63019;51.080;13.642;2022-09-03T01:49:04;7.43;;;1.40;;
74487;SDS011;63019;51.080;13.642;2022-09-03T01:51:27;4.40;;;1.45;;
74487;SDS011;63019;51.080;13.642;2022-09-03T01:52:39;2.30;;;1.38;;
74487;SDS011;63019;51.080;13.642;2022-09-03T01:55:08;2.97;;;1.30;;
74487;SDS011;63019;51.080;13.642;2022-09-03T01:57:23;9.68;;;1.60;;
74487;SDS011;63019;51.080;13.642;2022-09-03T01:58:48;3.03;;;1.20;;
74487;SDS011;63019;51.080;13.642;2022-09-03T02:00:05;5.22;;;1.92;;
74487;SDS011;63019;51.080;13.642;2022-09-03T02:01:20;3.00;;;1.15;;
74487;SDS011;63019;51.080;13.642;2022-09-03T02:02:27;3.30;;;1.00;;
74487;SDS011;63019;51.080;13.642;2022-09-03T02:03:38;4.68;;;1.40;;
74487;SDS011;63019;51.080;13.642;2022-09-03T02:04:42;5.05;;;2.05;;
74487;SDS011;63019;51.080;13.642;2022-09-03T02:06:02;3.28;;;1.20;;
74487;SDS011;63019;51.080;13.642;2022-09-03T02:07:06;2.33;;;0.90;;
74487;SDS011;63019;51.080;13.642;2022-09-03T02:08:08;2.80;;;1.27;;
74487;SDS011;63019;51.080;13.642;2022-09-03T02:09:11;2.13;;;1.10;;
74487;SDS011;63019;51.080;13.642;2022-09-03T02:10:15;3.70;;;1.02;;
74487;SDS011;63019;51.080;13.642;2022-09-03T02:11:20;4.15;;;1.10;;
74487;SDS011;63019;51.080;13.642;2022-09-03T02:12:22;2.03;;;1.00;;
74487;SDS011;63019;51.080;13.642;2022-09-03T02:13:25;3.53;;;1.20;;
74487;SDS011;63019;51.080;13.642;2022-09-03T02:14:31;9.07;;;1.25;;
74487;SDS011;63019;51.080;13.642;2022-09-03T02:15:34;2.40;;;1.20;;
74487;SDS011;63019;51.080;13.642;2022-09-03T02:16:38;4.57;;;1.15;;
74487;SDS011;63019;51.080;13.642;2022-09-03T02:17:40;5.15;;;1.25;;
74487;SDS011;63019;51.080;13.642;2022-09-03T02:18:50;3.25;;;1.02;;
74487;SDS011;63019;51.080;13.642;2022-09-03T02:19:56;2.17;;;0.88;;
74487;SDS011;63019;51.080;13.642;2022-09-03T02:20:59;4.40;;;1.20;;
74487;SDS011;63019;51.080;13.642;2022-09-03T02:22:01;5.28;;;1.00;;
74487;SDS011;63019;51.080;13.642;2022-09-03T02:23:04;2.05;;;1.02;;
74487;SDS011;63019;51.080;13.642;2022-09-03T02:24:06;5.23;;;1.20;;
74487;SDS011;63019;51.080;13.642;2022-09-03T02:25:08;2.20;;;1.10;;
74487;SDS011;63019;51.080;13.642;2022-09-03T02:26:11;2.53;;;0.90;;
74487;SDS011;63019;51.080;13.642;2022-09-03T02:27:18;2.33;;;1.00;;
74487;SDS011;63019;51.080;13.642;2022-09-03T02:28:20;5.03;;;1.40;;
74487;SDS011;63019;51.080;13.642;2022-09-03T02:29:23;6.32;;;0.98;;
74487;SDS011;63019;51.080;13.642;2022-09-03T02:30:27;2.47;;;1.10;;
74487;SDS011;63019;51.080;13.642;2022-09-03T02:31:28;3.33;;;1.35;;
74487;SDS011;63019;51.080;13.642;2022-09-03T02:32:31;3.72;;;1.10;;
74487;SDS011;63019;51.080;13.642;2022-09-03T02:33:37;3.60;;;1.20;;
74487;SDS011;63019;51.080;13.642;2022-09-03T02:34:41;2.63;;;1.20;;
74487;SDS011;63019;51.080;13.642;2022-09-03T02:35:44;3.33;;;1.00;;
74487;SDS011;63019;51.080;13.642;2022-09-03T02:36:46;4.00;;;1.45;;
74487;SDS011;63019;51.080;13.642;2022-09-03T02:37:48;2.38;;;1.15;;
74487;SDS011;63019;51.080;13.642;2022-09-03T02:38:50;3.08;;;1.10;;
74487;SDS011;63019;51.080;13.642;2022-09-03T02:39:52;5.60;;;1.20;;
74487;SDS011;63019;51.080;13.642;2022-09-03T02:40:54;2.22;;;1.38;;
74487;SDS011;63019;51.080;13.642;2022-09-03T02:41:56;8.95;;;1.92;;
74487;SDS011;63019;51.080;13.642;2022-09-03T02:42:59;1.92;;;1.20;;
74487;SDS011;63019;51.080;13.642;2022-09-03T02:46:30;1.55;;;1.20;;
74487;SDS011;63019;51.080;13.642;2022-09-03T02:47:35;3.50;;;1.13;;
74487;SDS011;63019;51.080;13.642;2022-09-03T02:48:42;2.67;;;1.35;;
74487;SDS011;63019;51.080;13.642;2022-09-03T02:49:44;3.30;;;1.05;;
74487;SDS011;63019;51.080;13.642;2022-09-03T02:50:49;4.18;;;1.13;;
74487;SDS011;63019;51.080;13.642;2022-09-03T02:51:56;5.32;;;1.38;;
74487;SDS011;63019;51.080;13.642;2022-09-03T02:53:01;2.38;;;1.17;;
74487;SDS011;63019;51.080;13.642;2022-09-03T02:54:03;2.05;;;1.10;;
74487;SDS011;63019;51.080;13.642;2022-09-03T02:55:06;3.80;;;1.27;;
74487;SDS011;63019;51.080;13.642;2022-09-03T02:56:08;4.80;;;1.37;;
74487;SDS011;63019;51.080;13.642;2022-09-03T02:57:11;2.97;;;1.23;;
74487;SDS011;63019;51.080;13.642;2022-09-03T02:58:15;3.17;;;1.10;;
74487;SDS011;63019;51.080;13.642;2022-09-03T02:59:16;4.10;;;1.20;;
74487;SDS011;63019;51.080;13.642;2022-09-03T03:00:18;3.35;;;1.20;;
74487;SDS011;63019;51.080;13.642;2022-09-03T03:01:20;2.05;;;1.02;;
74487;SDS011;63019;51.080;13.642;2022-09-03T03:02:24;2.28;;;0.93;;
74487;SDS011;63019;51.080;13.642;2022-09-03T03:03:26;1.85;;;1.30;;
74487;SDS011;63019;51.080;13.642;2022-09-03T03:04:29;2.28;;;1.30;;
74487;SDS011;63019;51.080;13.642;2022-09-03T03:05:41;2.40;;;1.15;;
74487;SDS011;63019;51.080;13.642;2022-09-03T03:06:46;2.27;;;1.20;;
74487;SDS011;63019;51.080;13.642;2022-09-03T03:07:50;2.45;;;1.15;;
74487;SDS011;63019;51.080;13.642;2022-09-03T03:08:52;3.15;;;1.25;;
74487;SDS011;63019;51.080;13.642;2022-09-03T03:09:55;2.45;;;1.30;;
74487;SDS011;63019;51.080;13.642;2022-09-03T03:10:57;4.25;;;1.17;;
74487;SDS011;63019;51.080;13.642;2022-09-03T03:12:00;3.50;;;1.10;;
74487;SDS011;63019;51.080;13.642;2022-09-03T03:13:02;3.08;;;1.25;;
74487;SDS011;63019;51.080;13.642;2022-09-03T03:14:04;3.72;;;1.23;;
74487;SDS011;63019;51.080;13.642;2022-09-03T03:15:06;3.83;;;1.42;;
74487;SDS011;63019;51.080;13.642;2022-09-03T03:16:08;2.42;;;1.25;;
74487;SDS011;63019;51.080;13.642;2022-09-03T03:17:10;3.87;;;1.37;;
74487;SDS011;63019;51.080;13.642;2022-09-03T03:18:12;3.13;;;1.27;;
74487;SDS011;63019;51.080;13.642;2022-09-03T03:19:14;3.38;;;1.23;;
74487;SDS011;63019;51.080;13.642;2022-09-03T03:20:15;4.25;;;1.40;;
74487;SDS011;63019;51.080;13.642;2022-09-03T03:21:17;3.17;;;1.13;;
74487;SDS011;63019;51.080;13.642;2022-09-03T03:22:19;3.17;;;1.40;;
74487;SDS011;63019;51.080;13.642;2022-09-03T03:23:21;5.70;;;1.30;;
74487;SDS011;63019;51.080;13.642;2022-09-03T03:24:23;1.92;;;1.20;;
74487;SDS011;63019;51.080;13.642;2022-09-03T03:25:24;2.47;;;1.08;;
74487;SDS011;63019;51.080;13.642;2022-09-03T03:26:26;2.40;;;1.20;;
74487;SDS011;63019;51.080;13.642;2022-09-03T03:27:28;4.73;;;1.30;;
74487;SDS011;63019;51.080;13.642;2022-09-03T03:28:30;1.77;;;1.15;;
74487;SDS011;63019;51.080;13.642;2022-09-03T03:29:35;2.53;;;1.05;;
74487;SDS011;63019;51.080;13.642;2022-09-03T03:30:37;2.85;;;1.20;;
74487;SDS011;63019;51.080;13.642;2022-09-03T03:31:40;4.03;;;1.27;;
74487;SDS011;63019;51.080;13.642;2022-09-03T03:32:42;1.40;;;1.10;;
74487;SDS011;63019;51.080;13.642;2022-09-03T03:33:49;4.43;;;1.15;;
74487;SDS011;63019;51.080;13.642;2022-09-03T03:35:00;7.15;;;1.20;;
74487;SDS011;63019;51.080;13.642;2022-09-03T03:37:07;7.05;;;1.00;;
74487;SDS011;63019;51.080;13.642;2022-09-03T03:38:08;3.70;;;1.20;;
74487;SDS011;63019;51.080;13.642;2022-09-03T03:39:10;3.33;;;1.45;;
74487;SDS011;63019;51.080;13.642;2022-09-03T03:40:12;3.33;;;1.20;;
74487;SDS011;63019;51.080;13.642;2022-09-03T03:41:16;2.03;;;1.00;;
74487;SDS011;63019;51.080;13.642;2022-09-03T03:42:19;2.80;;;1.15;;
74487;SDS011;63019;51.080;13.642;2022-09-03T03:43:21;1.75;;;1.15;;
74487;SDS011;63019;51.080;13.642;2022-09-03T03:44:23;3.22;;;1.38;;
74487;SDS011;63019;51.080;13.642;2022-09-03T03:45:25;5.90;;;1.30;;
74487;SDS011;63019;51.080;13.642;2022-09-03T03:46:32;3.42;;;1.30;;
74487;SDS011;63019;51.080;13.642;2022-09-03T03:47:38;3.05;;;1.20;;
74487;SDS011;63019;51.080;13.642;2022-09-03T03:48:40;3.43;;;1.43;;
74487;SDS011;63019;51.080;13.642;2022-09-03T03:49:42;2.13;;;1.17;;
74487;SDS011;63019;51.080;13.642;2022-09-03T03:50:44;2.97;;;1.40;;
74487;SDS011;63019;51.080;13.642;2022-09-03T03:51:47;6.15;;;1.50;;
74487;SDS011;63019;51.080;13.642;2022-09-03T03:52:49;3.13;;;1.10;;
74487;SDS011;63019;51.080;13.642;2022-09-03T03:53:54;4.35;;;1.70;;
74487;SDS011;63019;51.080;13.642;2022-09-03T03:54:57;2.75;;;1.40;;
74487;SDS011;63019;51.080;13.642;2022-09-03T03:56:00;4.10;;;1.70;;
74487;SDS011;63019;51.080;13.642;2022-09-03T03:57:03;8.98;;;1.17;;
74487;SDS011;63019;51.080;13.642;2022-09-03T03:58:05;2.15;;;1.23;;
74487;SDS011;63019;51.080;13.642;2022-09-03T03:59:07;5.33;;;1.50;;
74487;SDS011;63019;51.080;13.642;2022-09-03T04:00:09;5.80;;;1.55;;
74487;SDS011;63019;51.080;13.642;2022-09-03T04:01:17;6.30;;;1.17;;
74487;SDS011;63019;51.080;13.642;2022-09-03T04:02:21;3.03;;;1.30;;
74487;SDS011;63019;51.080;13.642;2022-09-03T04:03:23;3.20;;;1.30;;
74487;SDS011;63019;51.080;13.642;2022-09-03T04:04:24;2.88;;;1.50;;
74487;SDS011;63019;51.080;13.642;2022-09-03T04:05:26;3.30;;;1.60;;
74487;SDS011;63019;51.080;13.642;2022-09-03T04:06:33;4.93;;;1.40;;
74487;SDS011;63019;51.080;13.642;2022-09-03T04:07:35;4.10;;;1.27;;
74487;SDS011;63019;51.080;13.642;2022-09-03T04:08:39;4.80;;;1.17;;
74487;SDS011;63019;51.080;13.642;2022-09-03T04:09:42;3.03;;;1.27;;
74487;SDS011;63019;51.080;13.642;2022-09-03T04:10:43;7.05;;;1.40;;
74487;SDS011;63019;51.080;13.642;2022-09-03T04:11:45;3.15;;;1.10;;
74487;SDS011;63019;51.080;13.642;2022-09-03T04:12:47;3.45;;;1.27;;
74487;SDS011;63019;51.080;13.642;2022-09-03T04:13:49;2.90;;;1.20;;
74487;SDS011;63019;51.080;13.642;2022-09-03T04:14:51;3.35;;;1.30;;
74487;SDS011;63019;51.080;13.642;2022-09-03T04:15:58;2.50;;;1.20;;
74487;SDS011;63019;51.080;13.642;2022-09-03T04:17:04;2.83;;;1.10;;
74487;SDS011;63019;51.080;13.642;2022-09-03T04:18:06;3.42;;;1.30;;
74487;SDS011;63019;51.080;13.642;2022-09-03T04:19:08;4.55;;;1.23;;
74487;SDS011;63019;51.080;13.642;2022-09-03T04:20:10;2.10;;;1.27;;
74487;SDS011;63019;51.080;13.642;2022-09-03T04:21:13;2.70;;;1.00;;
74487;SDS011;63019;51.080;13.642;2022-09-03T04:22:16;5.55;;;1.25;;
74487;SDS011;63019;51.080;13.642;2022-09-03T04:23:19;4.88;;;1.40;;
74487;SDS011;63019;51.080;13.642;2022-09-03T04:24:21;1.95;;;1.10;;
74487;SDS011;63019;51.080;13.642;2022-09-03T04:25:24;4.38;;;1.13;;
74487;SDS011;63019;51.080;13.642;2022-09-03T04:26:29;3.00;;;1.10;;
74487;SDS011;63019;51.080;13.642;2022-09-03T04:27:32;3.55;;;1.17;;
74487;SDS011;63019;51.080;13.642;2022-09-03T04:28:34;1.60;;;0.90;;
74487;SDS011;63019;51.080;13.642;2022-09-03T04:29:36;2.20;;;1.23;;
74487;SDS011;63019;51.080;13.642;2022-09-03T04:30:39;4.17;;;1.07;;
74487;SDS011;63019;51.080;13.642;2022-09-03T04:31:41;4.68;;;1.38;;
74487;SDS011;63019;51.080;13.642;2022-09-03T04:33:06;1.88;;;1.00;;
74487;SDS011;63019;51.080;13.642;2022-09-03T04:34:16;7.95;;;1.38;;
74487;SDS011;63019;51.080;13.642;2022-09-03T04:35:18;3.30;;;1.17;;
74487;SDS011;63019;51.080;13.642;2022-09-03T04:36:25;2.53;;;1.20;;
74487;SDS011;63019;51.080;13.642;2022-09-03T04:37:28;8.57;;;1.33;;
74487;SDS011;63019;51.080;13.642;2022-09-03T04:38:30;2.15;;;1.10;;
74487;SDS011;63019;51.080;13.642;2022-09-03T04:39:36;2.35;;;1.10;;
74487;SDS011;63019;51.080;13.642;2022-09-03T04:40:38;2.67;;;1.00;;
74487;SDS011;63019;51.080;13.642;2022-09-03T04:41:40;3.13;;;1.07;;
74487;SDS011;63019;51.080;13.642;2022-09-03T04:42:41;2.97;;;0.90;;
74487;SDS011;63019;51.080;13.642;2022-09-03T04:43:44;3.50;;;1.20;;
74487;SDS011;63019;51.080;13.642;2022-09-03T04:44:51;3.63;;;1.02;;
74487;SDS011;63019;51.080;13.642;2022-09-03T04:45:56;7.53;;;1.20;;
74487;SDS011;63019;51.080;13.642;2022-09-03T04:46:59;1.75;;;1.08;;
74487;SDS011;63019;51.080;13.642;2022-09-03T04:48:01;2.45;;;1.27;;
74487;SDS011;63019;51.080;13.642;2022-09-03T04:49:04;3.42;;;1.20;;
74487;SDS011;63019;51.080;13.642;2022-09-03T04:50:09;5.68;;;1.30;;
74487;SDS011;63019;51.080;13.642;2022-09-03T04:51:12;7.15;;;1.50;;
74487;SDS011;63019;51.080;13.642;2022-09-03T04:52:16;3.17;;;1.23;;
74487;SDS011;63019;51.080;13.642;2022-09-03T04:53:18;5.22;;;1.20;;
74487;SDS011;63019;51.080;13.642;2022-09-03T04:54:19;1.60;;;1.10;;
74487;SDS011;63019;51.080;13.642;2022-09-03T04:55:21;2.38;;;1.00;;
74487;SDS011;63019;51.080;13.642;2022-09-03T04:56:24;2.95;;;1.20;;
74487;SDS011;63019;51.080;13.642;2022-09-03T04:57:27;2.45;;;1.17;;
74487;SDS011;63019;51.080;13.642;2022-09-03T04:58:34;2.30;;;1.10;;
74487;SDS011;63019;51.080;13.642;2022-09-03T04:59:38;3.65;;;1.13;;
74487;SDS011;63019;51.080;13.642;2022-09-03T05:00:41;5.18;;;1.20;;
74487;SDS011;63019;51.080;13.642;2022-09-03T05:01:43;1.92;;;1.20;;
74487;SDS011;63019;51.080;13.642;2022-09-03T05:02:44;2.67;;;1.20;;
74487;SDS011;63019;51.080;13.642;2022-09-03T05:03:51;3.45;;;1.25;;
74487;SDS011;63019;51.080;13.642;2022-09-03T05:04:54;4.20;;;1.20;;
74487;SDS011;63019;51.080;13.642;2022-09-03T05:05:58;3.38;;;1.17;;
74487;SDS011;63019;51.080;13.642;2022-09-03T05:07:00;1.88;;;1.10;;
74487;SDS011;63019;51.080;13.642;2022-09-03T05:08:02;9.95;;;1.40;;
74487;SDS011;63019;51.080;13.642;2022-09-03T05:09:04;4.22;;;1.20;;
74487;SDS011;63019;51.080;13.642;2022-09-03T05:10:07;4.32;;;1.17;;
74487;SDS011;63019;51.080;13.642;2022-09-03T05:11:13;3.03;;;1.23;;
74487;SDS011;63019;51.080;13.642;2022-09-03T05:12:15;2.40;;;0.98;;
74487;SDS011;63019;51.080;13.642;2022-09-03T05:13:17;3.63;;;1.20;;
74487;SDS011;63019;51.080;13.642;2022-09-03T05:14:19;3.63;;;1.10;;
74487;SDS011;63019;51.080;13.642;2022-09-03T05:15:21;3.30;;;1.10;;
74487;SDS011;63019;51.080;13.642;2022-09-03T05:16:23;3.22;;;1.25;;
74487;SDS011;63019;51.080;13.642;2022-09-03T05:17:26;2.03;;;0.90;;
74487;SDS011;63019;51.080;13.642;2022-09-03T05:18:28;4.03;;;1.15;;
74487;SDS011;63019;51.080;13.642;2022-09-03T05:19:30;4.70;;;1.35;;
74487;SDS011;63019;51.080;13.642;2022-09-03T05:20:31;1.75;;;1.00;;
74487;SDS011;63019;51.080;13.642;2022-09-03T05:21:34;1.67;;;1.02;;
74487;SDS011;63019;51.080;13.642;2022-09-03T05:22:36;3.35;;;1.25;;
74487;SDS011;63019;51.080;13.642;2022-09-03T05:23:38;2.23;;;1.30;;
74487;SDS011;63019;51.080;13.642;2022-09-03T05:24:42;4.95;;;1.30;;
74487;SDS011;63019;51.080;13.642;2022-09-03T05:25:53;4.50;;;1.20;;
74487;SDS011;63019;51.080;13.642;2022-09-03T05:26:59;3.92;;;1.38;;
74487;SDS011;63019;51.080;13.642;2022-09-03T05:28:01;3.08;;;1.35;;
74487;SDS011;63019;51.080;13.642;2022-09-03T05:29:04;3.85;;;1.02;;
74487;SDS011;63019;51.080;13.642;2022-09-03T05:30:10;2.22;;;1.25;;
74487;SDS011;63019;51.080;13.642;2022-09-03T05:31:14;4.20;;;1.20;;
74487;SDS011;63019;51.080;13.642;2022-09-03T05:32:17;3.90;;;1.30;;
74487;SDS011;63019;51.080;13.642;2022-09-03T05:33:19;5.30;;;1.17;;
74487;SDS011;63019;51.080;13.642;2022-09-03T05:34:24;6.83;;;1.20;;
74487;SDS011;63019;51.080;13.642;2022-09-03T05:35:26;3.47;;;1.13;;
74487;SDS011;63019;51.080;13.642;2022-09-03T05:36:31;2.03;;;1.05;;
74487;SDS011;63019;51.080;13.642;2022-09-03T05:37:35;4.22;;;1.20;;
74487;SDS011;63019;51.080;13.642;2022-09-03T05:38:37;5.05;;;1.40;;
74487;SDS011;63019;51.080;13.642;2022-09-03T05:39:39;5.07;;;1.00;;
74487;SDS011;63019;51.080;13.642;2022-09-03T05:40:41;2.72;;;1.20;;
74487;SDS011;63019;51.080;13.642;2022-09-03T05:41:43;4.35;;;1.40;;
74487;SDS011;63019;51.080;13.642;2022-09-03T05:42:44;3.45;;;1.23;;
74487;SDS011;63019;51.080;13.642;2022-09-03T05:43:51;2.58;;;1.02;;
74487;SDS011;63019;51.080;13.642;2022-09-03T05:44:56;3.50;;;1.20;;
74487;SDS011;63019;51.080;13.642;2022-09-03T05:46:03;3.60;;;1.15;;
74487;SDS011;63019;51.080;13.642;2022-09-03T05:47:17;6.53;;;1.15;;
74487;SDS011;63019;51.080;13.642;2022-09-03T05:48:19;5.78;;;1.20;;
74487;SDS011;63019;51.080;13.642;2022-09-03T05:49:21;5.20;;;1.27;;
74487;SDS011;63019;51.080;13.642;2022-09-03T05:50:23;4.93;;;1.20;;
74487;SDS011;63019;51.080;13.642;2022-09-03T05:51:24;3.95;;;1.13;;
74487;SDS011;63019;51.080;13.642;2022-09-03T05:52:26;5.18;;;1.20;;
74487;SDS011;63019;51.080;13.642;2022-09-03T05:53:28;4.00;;;1.10;;
74487;SDS011;63019;51.080;13.642;2022-09-03T05:54:34;3.70;;;1.00;;
74487;SDS011;63019;51.080;13.642;2022-09-03T05:55:36;1.93;;;1.10;;
74487;SDS011;63019;51.080;13.642;2022-09-03T05:56:38;3.10;;;1.10;;
74487;SDS011;63019;51.080;13.642;2022-09-03T05:57:41;1.70;;;1.00;;
74487;SDS011;63019;51.080;13.642;2022-09-03T05:58:44;2.95;;;1.25;;
74487;SDS011;63019;51.080;13.642;2022-09-03T05:59:47;3.42;;;1.48;;
74487;SDS011;63019;51.080;13.642;2022-09-03T06:00:50;2.22;;;1.20;;
74487;SDS011;63019;51.080;13.642;2022-09-03T06:01:52;4.25;;;1.02;;
74487;SDS011;63019;51.080;13.642;2022-09-03T06:02:59;5.57;;;1.30;;
74487;SDS011;63019;51.080;13.642;2022-09-03T06:04:04;2.55;;;1.10;;
74487;SDS011;63019;51.080;13.642;2022-09-03T06:05:07;3.47;;;1.20;;
74487;SDS011;63019;51.080;13.642;2022-09-03T06:06:09;3.70;;;1.17;;
74487;SDS011;63019;51.080;13.642;2022-09-03T06:07:13;4.50;;;1.30;;
74487;SDS011;63019;51.080;13.642;2022-09-03T06:08:16;3.53;;;1.10;;
74487;SDS011;63019;51.080;13.642;2022-09-03T06:09:19;1.63;;;1.00;;
74487;SDS011;63019;51.080;13.642;2022-09-03T06:10:23;3.92;;;1.13;;
74487;SDS011;63019;51.080;13.642;2022-09-03T06:11:33;3.95;;;0.93;;
74487;SDS011;63019;51.080;13.642;2022-09-03T06:12:44;2.72;;;0.73;;
74487;SDS011;63019;51.080;13.642;2022-09-03T06:13:49;2.47;;;1.00;;
74487;SDS011;63019;51.080;13.642;2022-09-03T06:14:51;2.60;;;1.00;;
74487;SDS011;63019;51.080;13.642;2022-09-03T06:15:56;1.90;;;0.85;;
74487;SDS011;63019;51.080;13.642;2022-09-03T06:17:03;1.27;;;0.80;;
74487;SDS011;63019;51.080;13.642;2022-09-03T06:18:04;2.72;;;0.90;;
74487;SDS011;63019;51.080;13.642;2022-09-03T06:19:07;4.00;;;1.00;;
74487;SDS011;63019;51.080;13.642;2022-09-03T06:20:10;5.43;;;1.10;;
74487;SDS011;63019;51.080;13.642;2022-09-03T06:21:12;2.03;;;1.05;;
74487;SDS011;63019;51.080;13.642;2022-09-03T06:22:15;1.75;;;0.80;;
74487;SDS011;63019;51.080;13.642;2022-09-03T06:23:17;1.95;;;0.88;;
74487;SDS011;63019;51.080;13.642;2022-09-03T06:24:19;4.25;;;0.90;;
74487;SDS011;63019;51.080;13.642;2022-09-03T06:25:28;5.30;;;0.90;;
74487;SDS011;63019;51.080;13.642;2022-09-03T06:26:30;4.05;;;0.80;;
74487;SDS011;63019;51.080;13.642;2022-09-03T06:27:32;2.03;;;0.97;;
74487;SDS011;63019;51.080;13.642;2022-09-03T06:28:35;4.45;;;1.00;;
74487;SDS011;63019;51.080;13.642;2022-09-03T06:29:38;1.45;;;0.90;;
74487;SDS011;63019;51.080;13.642;2022-09-03T06:30:40;2.40;;;0.95;;
74487;SDS011;63019;51.080;13.642;2022-09-03T06:31:42;4.88;;;0.98;;
74487;SDS011;63019;51.080;13.642;2022-09-03T06:32:44;1.67;;;0.70;;
74487;SDS011;63019;51.080;13.642;2022-09-03T06:33:46;3.28;;;1.00;;
74487;SDS011;63019;51.080;13.642;2022-09-03T06:34:48;3.97;;;1.15;;
74487;SDS011;63019;51.080;13.642;2022-09-03T06:35:53;1.70;;;0.90;;
74487;SDS011;63019;51.080;13.642;2022-09-03T06:36:58;3.92;;;0.95;;
74487;SDS011;63019;51.080;13.642;2022-09-03T06:38:00;3.53;;;0.97;;
74487;SDS011;63019;51.080;13.642;2022-09-03T06:39:02;2.10;;;0.88;;
74487;SDS011;63019;51.080;13.642;2022-09-03T06:40:04;1.52;;;0.70;;
74487;SDS011;63019;51.080;13.642;2022-09-03T06:41:14;1.60;;;0.82;;
74487;SDS011;63019;51.080;13.642;2022-09-03T06:42:21;5.72;;;0.82;;
74487;SDS011;63019;51.080;13.642;2022-09-03T06:43:23;0.90;;;0.60;;
74487;SDS011;63019;51.080;13.642;2022-09-03T06:44:25;3.92;;;0.70;;
74487;SDS011;63019;51.080;13.642;2022-09-03T06:45:26;3.42;;;0.90;;
74487;SDS011;63019;51.080;13.642;2022-09-03T06:46:30;4.20;;;1.15;;
74487;SDS011;63019;51.080;13.642;2022-09-03T06:47:33;3.17;;;0.90;;
74487;SDS011;63019;51.080;13.642;2022-09-03T06:48:35;4.20;;;0.70;;
74487;SDS011;63019;51.080;13.642;2022-09-03T06:49:38;1.63;;;0.70;;
74487;SDS011;63019;51.080;13.642;2022-09-03T06:50:41;2.90;;;0.70;;
74487;SDS011;63019;51.080;13.642;2022-09-03T06:51:42;6.95;;;1.00;;
74487;SDS011;63019;51.080;13.642;2022-09-03T06:52:49;1.00;;;0.80;;
74487;SDS011;63019;51.080;13.642;2022-09-03T06:53:59;3.33;;;0.80;;
74487;SDS011;63019;51.080;13.642;2022-09-03T06:55:02;1.65;;;0.70;;
74487;SDS011;63019;51.080;13.642;2022-09-03T06:56:05;1.52;;;0.70;;
74487;SDS011;63019;51.080;13.642;2022-09-03T06:57:11;1.65;;;1.00;;
74487;SDS011;63019;51.080;13.642;2022-09-03T06:58:13;4.55;;;1.05;;
74487;SDS011;63019;51.080;13.642;2022-09-03T06:59:16;5.73;;;1.00;;
74487;SDS011;63019;51.080;13.642;2022-09-03T07:00:18;2.72;;;0.70;;
74487;SDS011;63019;51.080;13.642;2022-09-03T07:01:22;1.88;;;0.90;;
74487;SDS011;63019;51.080;13.642;2022-09-03T07:02:26;1.58;;;0.60;;
74487;SDS011;63019;51.080;13.642;2022-09-03T07:03:28;3.13;;;0.80;;
74487;SDS011;63019;51.080;13.642;2022-09-03T07:04:30;1.60;;;0.70;;
74487;SDS011;63019;51.080;13.642;2022-09-03T07:05:35;5.32;;;0.73;;
74487;SDS011;63019;51.080;13.642;2022-09-03T07:06:38;6.65;;;1.00;;
74487;SDS011;63019;51.080;13.642;2022-09-03T07:07:42;3.35;;;0.80;;
74487;SDS011;63019;51.080;13.642;2022-09-03T07:08:46;4.15;;;0.70;;
74487;SDS011;63019;51.080;13.642;2022-09-03T07:09:48;3.60;;;0.80;;
74487;SDS011;63019;51.080;13.642;2022-09-03T07:10:49;5.68;;;0.80;;
74487;SDS011;63019;51.080;13.642;2022-09-03T07:11:51;4.10;;;0.80;;
74487;SDS011;63019;51.080;13.642;2022-09-03T07:12:53;1.90;;;0.70;;
74487;SDS011;63019;51.080;13.642;2022-09-03T07:13:56;1.90;;;0.70;;
74487;SDS011;63019;51.080;13.642;2022-09-03T07:14:58;1.63;;;0.63;;
74487;SDS011;63019;51.080;13.642;2022-09-03T07:16:01;1.67;;;0.70;;
74487;SDS011;63019;51.080;13.642;2022-09-03T07:17:05;4.03;;;0.70;;
74487;SDS011;63019;51.080;13.642;2022-09-03T07:18:07;3.30;;;0.73;;
74487;SDS011;63019;51.080;13.642;2022-09-03T07:19:08;2.95;;;0.93;;
74487;SDS011;63019;51.080;13.642;2022-09-03T07:20:10;1.67;;;0.87;;